sensor_id;sensor_type;location;lat;lon;timestamp;P1;durP1;ratioP1;P2;durP2;ratioP2
1014;SDS011;8170;48.118;11.628;2022-07-23T00:00:17;8.90;;;7.35;;
1014;SDS011;8170;48.118;11.628;2022-07-23T00:01:21;8.15;;;7.35;;
1014;SDS011;8170;48.118;11.628;2022-07-23T00:02:28;8.93;;;8.02;;
1014;SDS011;8170;48.118;11.628;2022-07-23T00:03:31;8.52;;;7.07;;
1014;SDS011;8170;48.118;11.628;2022-07-23T00:04:33;8.57;;;7.68;;
1014;SDS011;8170;48.118;11.628;2022-07-23T00:05:38;7.70;;;6.90;;
1014;SDS011;8170;48.118;11.628;2022-07-23T00:06:41;8.52;;;7.68;;
1014;SDS011;8170;48.118;11.628;2022-07-23T00:07:44;8.43;;;7.63;;
1014;SDS011;8170;48.118;11.628;2022-07-23T00:08:46;8.23;;;7.30;;
1014;SDS011;8170;48.118;11.628;2022-07-23T00:09:49;8.35;;;7.20;;
1014;SDS011;8170;48.118;11.628;2022-07-23T00:10:51;8.07;;;7.05;;
1014;SDS011;8170;48.118;11.628;2022-07-23T00:11:55;10.93;;;7.30;;
1014;SDS011;8170;48.118;11.628;2022-07-23T00:12:57;8.10;;;7.30;;
1014;SDS011;8170;48.118;11.628;2022-07-23T00:14:00;8.32;;;7.43;;
1014;SDS011;8170;48.118;11.628;2022-07-23T00:15:02;7.88;;;6.82;;
1014;SDS011;8170;48.118;11.628;2022-07-23T00:16:06;8.10;;;7.15;;
1014;SDS011;8170;48.118;11.628;2022-07-23T00:17:08;8.00;;;6.95;;
1014;SDS011;8170;48.118;11.628;2022-07-23T00:18:11;7.75;;;6.97;;
1014;SDS011;8170;48.118;11.628;2022-07-23T00:19:14;7.60;;;6.90;;
1014;SDS011;8170;48.118;11.628;2022-07-23T00:20:17;7.82;;;7.03;;
1014;SDS011;8170;48.118;11.628;2022-07-23T00:21:21;7.82;;;7.03;;
1014;SDS011;8170;48.118;11.628;2022-07-23T00:22:24;7.97;;;7.18;;
1014;SDS011;8170;48.118;11.628;2022-07-23T00:23:26;7.13;;;6.43;;
1014;SDS011;8170;48.118;11.628;2022-07-23T00:24:30;7.75;;;6.90;;
1014;SDS011;8170;48.118;11.628;2022-07-23T00:25:32;7.93;;;7.13;;
1014;SDS011;8170;48.118;11.628;2022-07-23T00:26:35;7.68;;;6.88;;
1014;SDS011;8170;48.118;11.628;2022-07-23T00:27:38;8.50;;;6.95;;
1014;SDS011;8170;48.118;11.628;2022-07-23T00:28:41;8.07;;;7.28;;
1014;SDS011;8170;48.118;11.628;2022-07-23T00:29:43;9.00;;;7.60;;
1014;SDS011;8170;48.118;11.628;2022-07-23T00:30:46;8.32;;;7.32;;
1014;SDS011;8170;48.118;11.628;2022-07-23T00:31:49;8.20;;;7.30;;
1014;SDS011;8170;48.118;11.628;2022-07-23T00:32:52;7.78;;;6.97;;
1014;SDS011;8170;48.118;11.628;2022-07-23T00:33:58;8.30;;;7.47;;
1014;SDS011;8170;48.118;11.628;2022-07-23T00:35:03;8.77;;;7.57;;
1014;SDS011;8170;48.118;11.628;2022-07-23T00:36:05;9.40;;;7.55;;
1014;SDS011;8170;48.118;11.628;2022-07-23T00:37:10;9.25;;;7.07;;
1014;SDS011;8170;48.118;11.628;2022-07-23T00:38:13;7.40;;;6.70;;
1014;SDS011;8170;48.118;11.628;2022-07-23T00:39:16;7.55;;;6.75;;
1014;SDS011;8170;48.118;11.628;2022-07-23T00:40:18;8.13;;;6.72;;
1014;SDS011;8170;48.118;11.628;2022-07-23T00:41:21;7.60;;;6.75;;
1014;SDS011;8170;48.118;11.628;2022-07-23T00:42:24;7.30;;;6.60;;
1014;SDS011;8170;48.118;11.628;2022-07-23T00:43:27;9.40;;;7.45;;
1014;SDS011;8170;48.118;11.628;2022-07-23T00:44:30;8.40;;;7.10;;
1014;SDS011;8170;48.118;11.628;2022-07-23T00:45:32;7.80;;;6.50;;
1014;SDS011;8170;48.118;11.628;2022-07-23T00:46:35;8.15;;;6.78;;
1014;SDS011;8170;48.118;11.628;2022-07-23T00:47:38;7.55;;;6.75;;
1014;SDS011;8170;48.118;11.628;2022-07-23T00:48:41;8.15;;;7.32;;
1014;SDS011;8170;48.118;11.628;2022-07-23T00:49:44;15.07;;;7.25;;
1014;SDS011;8170;48.118;11.628;2022-07-23T00:50:47;8.55;;;6.50;;
1014;SDS011;8170;48.118;11.628;2022-07-23T00:51:49;8.25;;;6.93;;
1014;SDS011;8170;48.118;11.628;2022-07-23T00:52:57;7.45;;;6.65;;
1014;SDS011;8170;48.118;11.628;2022-07-23T00:53:59;8.55;;;7.38;;
1014;SDS011;8170;48.118;11.628;2022-07-23T00:55:02;7.88;;;7.07;;
1014;SDS011;8170;48.118;11.628;2022-07-23T00:56:05;8.88;;;7.97;;
1014;SDS011;8170;48.118;11.628;2022-07-23T00:57:10;8.65;;;7.13;;
1014;SDS011;8170;48.118;11.628;2022-07-23T00:58:13;8.25;;;6.55;;
1014;SDS011;8170;48.118;11.628;2022-07-23T00:59:16;8.23;;;6.65;;
1014;SDS011;8170;48.118;11.628;2022-07-23T01:00:19;7.68;;;6.88;;
1014;SDS011;8170;48.118;11.628;2022-07-23T01:01:22;7.72;;;6.53;;
1014;SDS011;8170;48.118;11.628;2022-07-23T01:02:24;8.73;;;6.93;;
1014;SDS011;8170;48.118;11.628;2022-07-23T01:03:28;8.35;;;7.45;;
1014;SDS011;8170;48.118;11.628;2022-07-23T01:04:31;9.82;;;7.80;;
1014;SDS011;8170;48.118;11.628;2022-07-23T01:05:34;9.10;;;7.68;;
1014;SDS011;8170;48.118;11.628;2022-07-23T01:06:37;7.70;;;6.90;;
1014;SDS011;8170;48.118;11.628;2022-07-23T01:07:40;9.73;;;7.97;;
1014;SDS011;8170;48.118;11.628;2022-07-23T01:08:45;8.43;;;7.63;;
1014;SDS011;8170;48.118;11.628;2022-07-23T01:09:49;8.50;;;7.70;;
1014;SDS011;8170;48.118;11.628;2022-07-23T01:10:53;7.85;;;6.75;;
1014;SDS011;8170;48.118;11.628;2022-07-23T01:11:55;8.40;;;7.57;;
1014;SDS011;8170;48.118;11.628;2022-07-23T01:12:59;8.10;;;7.25;;
1014;SDS011;8170;48.118;11.628;2022-07-23T01:14:10;9.50;;;7.50;;
1014;SDS011;8170;48.118;11.628;2022-07-23T01:15:14;7.80;;;7.00;;
1014;SDS011;8170;48.118;11.628;2022-07-23T01:16:16;8.23;;;7.32;;
1014;SDS011;8170;48.118;11.628;2022-07-23T01:17:19;9.40;;;7.45;;
1014;SDS011;8170;48.118;11.628;2022-07-23T01:18:21;8.00;;;7.00;;
1014;SDS011;8170;48.118;11.628;2022-07-23T01:19:25;8.02;;;7.20;;
1014;SDS011;8170;48.118;11.628;2022-07-23T01:20:27;8.23;;;7.35;;
1014;SDS011;8170;48.118;11.628;2022-07-23T01:21:30;8.32;;;7.45;;
1014;SDS011;8170;48.118;11.628;2022-07-23T01:22:35;10.50;;;7.70;;
1014;SDS011;8170;48.118;11.628;2022-07-23T01:23:39;9.63;;;8.45;;
1014;SDS011;8170;48.118;11.628;2022-07-23T01:24:41;9.73;;;8.27;;
1014;SDS011;8170;48.118;11.628;2022-07-23T01:25:51;12.27;;;8.50;;
1014;SDS011;8170;48.118;11.628;2022-07-23T01:26:55;10.00;;;8.70;;
1014;SDS011;8170;48.118;11.628;2022-07-23T01:27:59;9.80;;;8.80;;
1014;SDS011;8170;48.118;11.628;2022-07-23T01:29:01;22.60;;;9.50;;
1014;SDS011;8170;48.118;11.628;2022-07-23T01:30:06;18.67;;;9.10;;
1014;SDS011;8170;48.118;11.628;2022-07-23T01:31:08;13.82;;;8.68;;
1014;SDS011;8170;48.118;11.628;2022-07-23T01:32:12;12.65;;;10.02;;
1014;SDS011;8170;48.118;11.628;2022-07-23T01:33:14;18.75;;;9.57;;
1014;SDS011;8170;48.118;11.628;2022-07-23T01:34:17;13.70;;;8.75;;
1014;SDS011;8170;48.118;11.628;2022-07-23T01:35:20;10.10;;;8.25;;
1014;SDS011;8170;48.118;11.628;2022-07-23T01:36:25;22.27;;;9.10;;
1014;SDS011;8170;48.118;11.628;2022-07-23T01:37:27;13.50;;;7.82;;
1014;SDS011;8170;48.118;11.628;2022-07-23T01:38:32;19.83;;;8.73;;
1014;SDS011;8170;48.118;11.628;2022-07-23T01:39:35;13.13;;;8.48;;
1014;SDS011;8170;48.118;11.628;2022-07-23T01:40:37;13.90;;;7.45;;
1014;SDS011;8170;48.118;11.628;2022-07-23T01:41:40;14.20;;;7.03;;
1014;SDS011;8170;48.118;11.628;2022-07-23T01:42:44;12.75;;;7.22;;
1014;SDS011;8170;48.118;11.628;2022-07-23T01:43:48;14.38;;;6.75;;
1014;SDS011;8170;48.118;11.628;2022-07-23T01:44:50;9.93;;;5.10;;
1014;SDS011;8170;48.118;11.628;2022-07-23T01:45:55;9.57;;;5.45;;
1014;SDS011;8170;48.118;11.628;2022-07-23T01:47:00;12.35;;;4.85;;
1014;SDS011;8170;48.118;11.628;2022-07-23T01:48:04;10.45;;;4.15;;
1014;SDS011;8170;48.118;11.628;2022-07-23T01:49:13;11.02;;;4.78;;
1014;SDS011;8170;48.118;11.628;2022-07-23T01:50:35;5.80;;;4.03;;
1014;SDS011;8170;48.118;11.628;2022-07-23T01:51:54;6.65;;;4.35;;
1014;SDS011;8170;48.118;11.628;2022-07-23T01:53:10;8.68;;;5.18;;
1014;SDS011;8170;48.118;11.628;2022-07-23T01:54:13;6.72;;;4.85;;
1014;SDS011;8170;48.118;11.628;2022-07-23T01:55:16;9.05;;;5.30;;
1014;SDS011;8170;48.118;11.628;2022-07-23T01:56:22;7.68;;;5.10;;
1014;SDS011;8170;48.118;11.628;2022-07-23T01:57:25;11.10;;;5.90;;
1014;SDS011;8170;48.118;11.628;2022-07-23T01:58:27;8.93;;;5.18;;
1014;SDS011;8170;48.118;11.628;2022-07-23T01:59:31;7.25;;;5.70;;
1014;SDS011;8170;48.118;11.628;2022-07-23T02:00:33;7.88;;;5.82;;
1014;SDS011;8170;48.118;11.628;2022-07-23T02:01:37;9.32;;;6.40;;
1014;SDS011;8170;48.118;11.628;2022-07-23T02:02:40;6.65;;;5.75;;
1014;SDS011;8170;48.118;11.628;2022-07-23T02:03:43;8.35;;;6.20;;
1014;SDS011;8170;48.118;11.628;2022-07-23T02:04:45;7.78;;;5.18;;
1014;SDS011;8170;48.118;11.628;2022-07-23T02:05:50;7.03;;;6.20;;
1014;SDS011;8170;48.118;11.628;2022-07-23T02:06:52;7.30;;;4.95;;
1014;SDS011;8170;48.118;11.628;2022-07-23T02:07:56;6.78;;;5.55;;
1014;SDS011;8170;48.118;11.628;2022-07-23T02:08:59;8.73;;;5.85;;
1014;SDS011;8170;48.118;11.628;2022-07-23T02:10:04;6.70;;;5.50;;
1014;SDS011;8170;48.118;11.628;2022-07-23T02:11:11;7.57;;;5.43;;
1014;SDS011;8170;48.118;11.628;2022-07-23T02:12:13;8.10;;;6.30;;
1014;SDS011;8170;48.118;11.628;2022-07-23T02:13:18;8.00;;;6.32;;
1014;SDS011;8170;48.118;11.628;2022-07-23T02:14:20;8.77;;;6.07;;
1014;SDS011;8170;48.118;11.628;2022-07-23T02:15:24;7.63;;;6.00;;
1014;SDS011;8170;48.118;11.628;2022-07-23T02:16:27;7.40;;;5.85;;
1014;SDS011;8170;48.118;11.628;2022-07-23T02:17:35;7.75;;;6.55;;
1014;SDS011;8170;48.118;11.628;2022-07-23T02:18:38;9.70;;;6.55;;
1014;SDS011;8170;48.118;11.628;2022-07-23T02:19:41;7.32;;;5.80;;
1014;SDS011;8170;48.118;11.628;2022-07-23T02:20:43;7.05;;;5.75;;
1014;SDS011;8170;48.118;11.628;2022-07-23T02:21:46;8.98;;;6.43;;
1014;SDS011;8170;48.118;11.628;2022-07-23T02:22:49;9.25;;;6.25;;
1014;SDS011;8170;48.118;11.628;2022-07-23T02:23:52;7.47;;;6.20;;
1014;SDS011;8170;48.118;11.628;2022-07-23T02:24:54;8.77;;;6.50;;
1014;SDS011;8170;48.118;11.628;2022-07-23T02:25:59;7.40;;;5.50;;
1014;SDS011;8170;48.118;11.628;2022-07-23T02:27:03;6.63;;;5.20;;
1014;SDS011;8170;48.118;11.628;2022-07-23T02:28:06;7.43;;;4.97;;
1014;SDS011;8170;48.118;11.628;2022-07-23T02:29:09;6.05;;;4.45;;
1014;SDS011;8170;48.118;11.628;2022-07-23T02:30:12;6.47;;;4.90;;
1014;SDS011;8170;48.118;11.628;2022-07-23T02:31:14;5.30;;;3.90;;
1014;SDS011;8170;48.118;11.628;2022-07-23T02:32:17;7.10;;;4.47;;
1014;SDS011;8170;48.118;11.628;2022-07-23T02:33:20;5.97;;;4.10;;
1014;SDS011;8170;48.118;11.628;2022-07-23T02:34:23;6.05;;;4.20;;
1014;SDS011;8170;48.118;11.628;2022-07-23T02:35:26;6.63;;;4.05;;
1014;SDS011;8170;48.118;11.628;2022-07-23T02:36:31;7.45;;;3.80;;
1014;SDS011;8170;48.118;11.628;2022-07-23T02:37:33;5.75;;;2.97;;
1014;SDS011;8170;48.118;11.628;2022-07-23T02:38:37;7.32;;;3.88;;
1014;SDS011;8170;48.118;11.628;2022-07-23T02:39:39;4.38;;;2.97;;
1014;SDS011;8170;48.118;11.628;2022-07-23T02:40:42;6.20;;;3.42;;
1014;SDS011;8170;48.118;11.628;2022-07-23T02:41:46;5.07;;;3.50;;
1014;SDS011;8170;48.118;11.628;2022-07-23T02:42:49;5.43;;;3.72;;
1014;SDS011;8170;48.118;11.628;2022-07-23T02:43:52;5.80;;;3.88;;
1014;SDS011;8170;48.118;11.628;2022-07-23T02:44:56;5.53;;;3.60;;
1014;SDS011;8170;48.118;11.628;2022-07-23T02:45:59;6.40;;;4.25;;
1014;SDS011;8170;48.118;11.628;2022-07-23T02:47:02;6.05;;;3.90;;
1014;SDS011;8170;48.118;11.628;2022-07-23T02:48:07;5.75;;;3.83;;
1014;SDS011;8170;48.118;11.628;2022-07-23T02:49:09;5.00;;;3.50;;
1014;SDS011;8170;48.118;11.628;2022-07-23T02:50:12;5.63;;;3.28;;
1014;SDS011;8170;48.118;11.628;2022-07-23T02:51:14;5.03;;;3.42;;
1014;SDS011;8170;48.118;11.628;2022-07-23T02:52:25;4.50;;;3.28;;
1014;SDS011;8170;48.118;11.628;2022-07-23T02:53:27;4.82;;;2.90;;
1014;SDS011;8170;48.118;11.628;2022-07-23T02:54:30;7.85;;;3.40;;
1014;SDS011;8170;48.118;11.628;2022-07-23T02:55:32;5.38;;;3.65;;
1014;SDS011;8170;48.118;11.628;2022-07-23T02:56:36;5.30;;;3.45;;
1014;SDS011;8170;48.118;11.628;2022-07-23T02:57:40;5.15;;;3.17;;
1014;SDS011;8170;48.118;11.628;2022-07-23T02:58:43;4.85;;;3.20;;
1014;SDS011;8170;48.118;11.628;2022-07-23T02:59:45;4.70;;;3.53;;
1014;SDS011;8170;48.118;11.628;2022-07-23T03:00:48;6.10;;;3.55;;
1014;SDS011;8170;48.118;11.628;2022-07-23T03:01:51;6.35;;;3.55;;
1014;SDS011;8170;48.118;11.628;2022-07-23T03:02:54;6.35;;;4.30;;
1014;SDS011;8170;48.118;11.628;2022-07-23T03:03:56;8.23;;;4.15;;
1014;SDS011;8170;48.118;11.628;2022-07-23T03:04:59;6.68;;;4.18;;
1014;SDS011;8170;48.118;11.628;2022-07-23T03:06:02;6.20;;;3.20;;
1014;SDS011;8170;48.118;11.628;2022-07-23T03:07:05;8.25;;;3.55;;
1014;SDS011;8170;48.118;11.628;2022-07-23T03:08:07;6.00;;;2.95;;
1014;SDS011;8170;48.118;11.628;2022-07-23T03:09:12;4.40;;;3.10;;
1014;SDS011;8170;48.118;11.628;2022-07-23T03:10:15;4.75;;;2.92;;
1014;SDS011;8170;48.118;11.628;2022-07-23T03:11:18;5.78;;;3.65;;
1014;SDS011;8170;48.118;11.628;2022-07-23T03:12:22;7.55;;;3.45;;
1014;SDS011;8170;48.118;11.628;2022-07-23T03:13:27;5.80;;;3.75;;
1014;SDS011;8170;48.118;11.628;2022-07-23T03:14:32;5.75;;;4.20;;
1014;SDS011;8170;48.118;11.628;2022-07-23T03:15:35;6.43;;;4.32;;
1014;SDS011;8170;48.118;11.628;2022-07-23T03:16:38;7.05;;;4.10;;
1014;SDS011;8170;48.118;11.628;2022-07-23T03:17:41;6.07;;;4.10;;
1014;SDS011;8170;48.118;11.628;2022-07-23T03:18:43;6.07;;;4.40;;
1014;SDS011;8170;48.118;11.628;2022-07-23T03:19:46;5.85;;;4.10;;
1014;SDS011;8170;48.118;11.628;2022-07-23T03:20:48;6.38;;;4.57;;
1014;SDS011;8170;48.118;11.628;2022-07-23T03:21:52;6.43;;;4.38;;
1014;SDS011;8170;48.118;11.628;2022-07-23T03:22:54;5.68;;;4.30;;
1014;SDS011;8170;48.118;11.628;2022-07-23T03:23:57;6.28;;;4.57;;
1014;SDS011;8170;48.118;11.628;2022-07-23T03:24:59;6.75;;;4.35;;
1014;SDS011;8170;48.118;11.628;2022-07-23T03:26:07;6.20;;;4.38;;
1014;SDS011;8170;48.118;11.628;2022-07-23T03:27:09;7.15;;;4.30;;
1014;SDS011;8170;48.118;11.628;2022-07-23T03:28:13;7.30;;;5.05;;
1014;SDS011;8170;48.118;11.628;2022-07-23T03:29:16;6.50;;;4.50;;
1014;SDS011;8170;48.118;11.628;2022-07-23T03:30:20;5.80;;;4.55;;
1014;SDS011;8170;48.118;11.628;2022-07-23T03:31:22;6.45;;;4.80;;
1014;SDS011;8170;48.118;11.628;2022-07-23T03:32:26;5.70;;;4.32;;
1014;SDS011;8170;48.118;11.628;2022-07-23T03:33:29;7.13;;;4.45;;
1014;SDS011;8170;48.118;11.628;2022-07-23T03:34:33;8.05;;;5.18;;
1014;SDS011;8170;48.118;11.628;2022-07-23T03:35:35;5.72;;;4.70;;
1014;SDS011;8170;48.118;11.628;2022-07-23T03:36:50;7.13;;;5.05;;
1014;SDS011;8170;48.118;11.628;2022-07-23T03:37:53;6.13;;;5.13;;
1014;SDS011;8170;48.118;11.628;2022-07-23T03:38:55;8.63;;;5.18;;
1014;SDS011;8170;48.118;11.628;2022-07-23T03:39:59;6.40;;;5.70;;
1014;SDS011;8170;48.118;11.628;2022-07-23T03:41:03;6.57;;;5.10;;
1014;SDS011;8170;48.118;11.628;2022-07-23T03:42:07;7.10;;;5.13;;
1014;SDS011;8170;48.118;11.628;2022-07-23T03:43:10;8.30;;;5.55;;
1014;SDS011;8170;48.118;11.628;2022-07-23T03:44:13;6.88;;;5.40;;
1014;SDS011;8170;48.118;11.628;2022-07-23T03:45:17;7.65;;;6.72;;
1014;SDS011;8170;48.118;11.628;2022-07-23T03:46:21;7.47;;;6.30;;
1014;SDS011;8170;48.118;11.628;2022-07-23T03:47:23;6.65;;;5.75;;
1014;SDS011;8170;48.118;11.628;2022-07-23T03:48:26;8.90;;;5.85;;
1014;SDS011;8170;48.118;11.628;2022-07-23T03:49:28;10.98;;;5.80;;
1014;SDS011;8170;48.118;11.628;2022-07-23T03:50:31;6.53;;;5.75;;
1014;SDS011;8170;48.118;11.628;2022-07-23T03:51:33;6.97;;;5.85;;
1014;SDS011;8170;48.118;11.628;2022-07-23T03:52:37;7.60;;;5.75;;
1014;SDS011;8170;48.118;11.628;2022-07-23T03:53:39;6.60;;;5.75;;
1014;SDS011;8170;48.118;11.628;2022-07-23T03:54:42;7.28;;;5.93;;
1014;SDS011;8170;48.118;11.628;2022-07-23T03:55:44;7.05;;;6.20;;
1014;SDS011;8170;48.118;11.628;2022-07-23T03:56:48;6.45;;;5.75;;
1014;SDS011;8170;48.118;11.628;2022-07-23T03:57:50;6.88;;;6.00;;
1014;SDS011;8170;48.118;11.628;2022-07-23T03:58:53;11.70;;;6.18;;
1014;SDS011;8170;48.118;11.628;2022-07-23T03:59:55;6.50;;;5.80;;
1014;SDS011;8170;48.118;11.628;2022-07-23T04:01:01;6.82;;;6.10;;
1014;SDS011;8170;48.118;11.628;2022-07-23T04:02:03;7.43;;;6.43;;
1014;SDS011;8170;48.118;11.628;2022-07-23T04:03:06;7.35;;;6.15;;
1014;SDS011;8170;48.118;11.628;2022-07-23T04:04:09;7.38;;;6.60;;
1014;SDS011;8170;48.118;11.628;2022-07-23T04:05:14;11.30;;;6.97;;
1014;SDS011;8170;48.118;11.628;2022-07-23T04:06:18;8.13;;;6.40;;
1014;SDS011;8170;48.118;11.628;2022-07-23T04:07:22;7.90;;;6.32;;
1014;SDS011;8170;48.118;11.628;2022-07-23T04:08:25;7.00;;;6.20;;
1014;SDS011;8170;48.118;11.628;2022-07-23T04:09:27;7.97;;;7.15;;
1014;SDS011;8170;48.118;11.628;2022-07-23T04:10:30;8.20;;;6.65;;
1014;SDS011;8170;48.118;11.628;2022-07-23T04:11:32;8.32;;;6.90;;
1014;SDS011;8170;48.118;11.628;2022-07-23T04:12:36;9.57;;;6.40;;
1014;SDS011;8170;48.118;11.628;2022-07-23T04:13:38;7.10;;;6.40;;
1014;SDS011;8170;48.118;11.628;2022-07-23T04:14:43;7.75;;;6.95;;
1014;SDS011;8170;48.118;11.628;2022-07-23T04:15:45;6.45;;;5.85;;
1014;SDS011;8170;48.118;11.628;2022-07-23T04:16:51;7.28;;;6.47;;
1014;SDS011;8170;48.118;11.628;2022-07-23T04:17:54;8.20;;;6.03;;
1014;SDS011;8170;48.118;11.628;2022-07-23T04:19:03;7.20;;;6.50;;
1014;SDS011;8170;48.118;11.628;2022-07-23T04:20:15;11.65;;;7.05;;
1014;SDS011;8170;48.118;11.628;2022-07-23T04:21:24;9.13;;;6.43;;
1014;SDS011;8170;48.118;11.628;2022-07-23T04:22:27;8.98;;;7.53;;
1014;SDS011;8170;48.118;11.628;2022-07-23T04:23:29;8.52;;;7.57;;
1014;SDS011;8170;48.118;11.628;2022-07-23T04:24:32;9.40;;;6.55;;
1014;SDS011;8170;48.118;11.628;2022-07-23T04:25:34;7.75;;;6.95;;
1014;SDS011;8170;48.118;11.628;2022-07-23T04:26:39;8.20;;;7.13;;
1014;SDS011;8170;48.118;11.628;2022-07-23T04:27:41;7.13;;;6.43;;
1014;SDS011;8170;48.118;11.628;2022-07-23T04:28:44;7.70;;;6.93;;
1014;SDS011;8170;48.118;11.628;2022-07-23T04:29:46;8.10;;;6.80;;
1014;SDS011;8170;48.118;11.628;2022-07-23T04:30:49;7.80;;;6.88;;
1014;SDS011;8170;48.118;11.628;2022-07-23T04:31:53;7.55;;;6.43;;
1014;SDS011;8170;48.118;11.628;2022-07-23T04:32:56;8.00;;;7.20;;
1014;SDS011;8170;48.118;11.628;2022-07-23T04:34:01;8.10;;;7.30;;
1014;SDS011;8170;48.118;11.628;2022-07-23T04:35:05;8.38;;;7.15;;
1014;SDS011;8170;48.118;11.628;2022-07-23T04:36:09;8.40;;;7.50;;
1014;SDS011;8170;48.118;11.628;2022-07-23T04:37:12;8.73;;;7.82;;
1014;SDS011;8170;48.118;11.628;2022-07-23T04:38:15;8.80;;;6.68;;
1014;SDS011;8170;48.118;11.628;2022-07-23T04:39:18;7.30;;;6.55;;
1014;SDS011;8170;48.118;11.628;2022-07-23T04:40:21;8.48;;;6.82;;
1014;SDS011;8170;48.118;11.628;2022-07-23T04:41:25;6.95;;;6.20;;
1014;SDS011;8170;48.118;11.628;2022-07-23T04:42:28;7.70;;;6.90;;
1014;SDS011;8170;48.118;11.628;2022-07-23T04:43:30;7.70;;;6.15;;
1014;SDS011;8170;48.118;11.628;2022-07-23T04:44:33;7.43;;;5.90;;
1014;SDS011;8170;48.118;11.628;2022-07-23T04:45:38;7.00;;;6.22;;
1014;SDS011;8170;48.118;11.628;2022-07-23T04:46:41;6.95;;;6.25;;
1014;SDS011;8170;48.118;11.628;2022-07-23T04:47:45;7.60;;;6.80;;
1014;SDS011;8170;48.118;11.628;2022-07-23T04:48:47;10.32;;;6.30;;
1014;SDS011;8170;48.118;11.628;2022-07-23T04:49:52;6.22;;;5.63;;
1014;SDS011;8170;48.118;11.628;2022-07-23T04:50:54;7.05;;;6.35;;
1014;SDS011;8170;48.118;11.628;2022-07-23T04:51:58;7.88;;;6.82;;
1014;SDS011;8170;48.118;11.628;2022-07-23T04:53:00;7.93;;;7.13;;
1014;SDS011;8170;48.118;11.628;2022-07-23T04:54:04;8.43;;;7.07;;
1014;SDS011;8170;48.118;11.628;2022-07-23T04:55:06;7.43;;;6.45;;
1014;SDS011;8170;48.118;11.628;2022-07-23T04:56:10;7.45;;;6.65;;
1014;SDS011;8170;48.118;11.628;2022-07-23T04:57:12;7.90;;;6.40;;
1014;SDS011;8170;48.118;11.628;2022-07-23T04:58:15;6.78;;;6.07;;
1014;SDS011;8170;48.118;11.628;2022-07-23T04:59:18;8.70;;;6.30;;
1014;SDS011;8170;48.118;11.628;2022-07-23T05:00:24;7.00;;;6.30;;
1014;SDS011;8170;48.118;11.628;2022-07-23T05:01:26;7.13;;;6.43;;
1014;SDS011;8170;48.118;11.628;2022-07-23T05:02:29;7.70;;;6.90;;
1014;SDS011;8170;48.118;11.628;2022-07-23T05:03:33;7.88;;;6.28;;
1014;SDS011;8170;48.118;11.628;2022-07-23T05:04:36;7.78;;;6.20;;
1014;SDS011;8170;48.118;11.628;2022-07-23T05:05:40;8.25;;;7.00;;
1014;SDS011;8170;48.118;11.628;2022-07-23T05:06:48;7.75;;;7.05;;
1014;SDS011;8170;48.118;11.628;2022-07-23T05:07:52;9.35;;;7.40;;
1014;SDS011;8170;48.118;11.628;2022-07-23T05:08:54;7.40;;;6.68;;
1014;SDS011;8170;48.118;11.628;2022-07-23T05:09:59;7.50;;;6.50;;
1014;SDS011;8170;48.118;11.628;2022-07-23T05:11:02;7.75;;;6.82;;
1014;SDS011;8170;48.118;11.628;2022-07-23T05:12:06;8.10;;;6.88;;
1014;SDS011;8170;48.118;11.628;2022-07-23T05:13:09;8.10;;;7.30;;
1014;SDS011;8170;48.118;11.628;2022-07-23T05:14:12;7.18;;;6.38;;
1014;SDS011;8170;48.118;11.628;2022-07-23T05:15:15;7.65;;;6.85;;
1014;SDS011;8170;48.118;11.628;2022-07-23T05:16:17;8.40;;;7.43;;
1014;SDS011;8170;48.118;11.628;2022-07-23T05:17:21;8.50;;;7.60;;
1014;SDS011;8170;48.118;11.628;2022-07-23T05:18:23;8.23;;;7.22;;
1014;SDS011;8170;48.118;11.628;2022-07-23T05:19:28;7.95;;;7.15;;
1014;SDS011;8170;48.118;11.628;2022-07-23T05:20:31;9.02;;;7.35;;
1014;SDS011;8170;48.118;11.628;2022-07-23T05:21:34;8.05;;;7.25;;
1014;SDS011;8170;48.118;11.628;2022-07-23T05:22:37;8.27;;;6.93;;
1014;SDS011;8170;48.118;11.628;2022-07-23T05:23:40;7.68;;;6.88;;
1014;SDS011;8170;48.118;11.628;2022-07-23T05:24:43;7.40;;;6.15;;
1014;SDS011;8170;48.118;11.628;2022-07-23T05:25:46;9.27;;;7.22;;
1014;SDS011;8170;48.118;11.628;2022-07-23T05:26:50;10.75;;;7.05;;
1014;SDS011;8170;48.118;11.628;2022-07-23T05:27:53;7.78;;;6.18;;
1014;SDS011;8170;48.118;11.628;2022-07-23T05:28:57;7.90;;;7.10;;
1014;SDS011;8170;48.118;11.628;2022-07-23T05:29:59;8.20;;;7.20;;
1014;SDS011;8170;48.118;11.628;2022-07-23T05:31:04;8.18;;;7.32;;
1014;SDS011;8170;48.118;11.628;2022-07-23T05:32:08;11.02;;;7.55;;
1014;SDS011;8170;48.118;11.628;2022-07-23T05:33:14;8.55;;;7.50;;
1014;SDS011;8170;48.118;11.628;2022-07-23T05:34:16;7.85;;;7.05;;
1014;SDS011;8170;48.118;11.628;2022-07-23T05:35:22;8.82;;;7.93;;
1014;SDS011;8170;48.118;11.628;2022-07-23T05:36:39;9.20;;;7.18;;
1014;SDS011;8170;48.118;11.628;2022-07-23T05:37:44;8.48;;;7.57;;
1014;SDS011;8170;48.118;11.628;2022-07-23T05:38:46;13.60;;;7.22;;
1014;SDS011;8170;48.118;11.628;2022-07-23T05:39:49;8.48;;;7.28;;
1014;SDS011;8170;48.118;11.628;2022-07-23T05:40:52;8.93;;;7.43;;
1014;SDS011;8170;48.118;11.628;2022-07-23T05:41:55;8.60;;;7.70;;
1014;SDS011;8170;48.118;11.628;2022-07-23T05:42:58;8.40;;;7.60;;
1014;SDS011;8170;48.118;11.628;2022-07-23T05:44:01;8.63;;;7.72;;
1014;SDS011;8170;48.118;11.628;2022-07-23T05:45:05;9.20;;;7.30;;
1014;SDS011;8170;48.118;11.628;2022-07-23T05:46:11;9.15;;;7.60;;
1014;SDS011;8170;48.118;11.628;2022-07-23T05:47:16;8.40;;;7.55;;
1014;SDS011;8170;48.118;11.628;2022-07-23T05:48:20;8.32;;;7.43;;
1014;SDS011;8170;48.118;11.628;2022-07-23T05:49:36;7.53;;;6.70;;
1014;SDS011;8170;48.118;11.628;2022-07-23T05:50:44;9.68;;;7.80;;
1014;SDS011;8170;48.118;11.628;2022-07-23T05:51:55;9.50;;;7.78;;
1014;SDS011;8170;48.118;11.628;2022-07-23T05:53:09;8.77;;;7.88;;
1014;SDS011;8170;48.118;11.628;2022-07-23T05:54:33;9.00;;;8.07;;
1014;SDS011;8170;48.118;11.628;2022-07-23T05:55:36;8.30;;;7.45;;
1014;SDS011;8170;48.118;11.628;2022-07-23T05:56:39;8.80;;;7.90;;
1014;SDS011;8170;48.118;11.628;2022-07-23T05:57:41;9.65;;;8.02;;
1014;SDS011;8170;48.118;11.628;2022-07-23T05:58:45;8.13;;;7.10;;
1014;SDS011;8170;48.118;11.628;2022-07-23T05:59:49;8.27;;;7.45;;
1014;SDS011;8170;48.118;11.628;2022-07-23T06:00:52;8.18;;;7.07;;
1014;SDS011;8170;48.118;11.628;2022-07-23T06:01:54;7.72;;;6.97;;
1014;SDS011;8170;48.118;11.628;2022-07-23T06:02:58;8.40;;;7.25;;
1014;SDS011;8170;48.118;11.628;2022-07-23T06:04:03;8.77;;;7.90;;
1014;SDS011;8170;48.118;11.628;2022-07-23T06:05:10;7.85;;;7.03;;
1014;SDS011;8170;48.118;11.628;2022-07-23T06:06:14;8.30;;;7.07;;
1014;SDS011;8170;48.118;11.628;2022-07-23T06:07:20;8.25;;;7.40;;
1014;SDS011;8170;48.118;11.628;2022-07-23T06:08:23;8.13;;;7.25;;
1014;SDS011;8170;48.118;11.628;2022-07-23T06:09:26;8.43;;;7.63;;
1014;SDS011;8170;48.118;11.628;2022-07-23T06:10:29;8.05;;;7.25;;
1014;SDS011;8170;48.118;11.628;2022-07-23T06:11:32;8.73;;;7.63;;
1014;SDS011;8170;48.118;11.628;2022-07-23T06:12:34;8.02;;;7.25;;
1014;SDS011;8170;48.118;11.628;2022-07-23T06:13:37;7.68;;;6.90;;
1014;SDS011;8170;48.118;11.628;2022-07-23T06:14:40;10.30;;;8.50;;
1014;SDS011;8170;48.118;11.628;2022-07-23T06:15:44;8.20;;;7.30;;
1014;SDS011;8170;48.118;11.628;2022-07-23T06:16:46;10.73;;;7.85;;
1014;SDS011;8170;48.118;11.628;2022-07-23T06:17:50;9.60;;;7.93;;
1014;SDS011;8170;48.118;11.628;2022-07-23T06:18:53;8.90;;;7.50;;
1014;SDS011;8170;48.118;11.628;2022-07-23T06:19:55;9.45;;;8.32;;
1014;SDS011;8170;48.118;11.628;2022-07-23T06:20:58;9.63;;;8.05;;
1014;SDS011;8170;48.118;11.628;2022-07-23T06:22:03;9.65;;;8.65;;
1014;SDS011;8170;48.118;11.628;2022-07-23T06:23:06;9.07;;;8.18;;
1014;SDS011;8170;48.118;11.628;2022-07-23T06:24:08;9.73;;;8.73;;
1014;SDS011;8170;48.118;11.628;2022-07-23T06:25:13;9.75;;;8.63;;
1014;SDS011;8170;48.118;11.628;2022-07-23T06:26:20;10.25;;;8.50;;
1014;SDS011;8170;48.118;11.628;2022-07-23T06:27:22;9.75;;;8.75;;
1014;SDS011;8170;48.118;11.628;2022-07-23T06:28:27;10.48;;;9.45;;
1014;SDS011;8170;48.118;11.628;2022-07-23T06:29:29;9.73;;;8.82;;